»·PEaware :: SWA136 KTUS-KSAN

SWA136 :: KTUS-KSAN

FLIGHT INFORMATION

Flight Status: Arrived
Operator:
Southwest Airlines
More flights by this operator :: More flights under this callsign
Pilot: David F. (17152)
Aircraft: BOEING 737-800
(B738)
More flights by this aircraft type
Origin: KTUS Tucson Intl
United States
Destination: KSAN San Diego Intl-Lindbergh
United States
More flights between these airports :: More routes between these airports
Route: BURRO4 GBN J2 HOGGZ LUCKI1
File this flight plan on PilotEdge
Remarks: RMK / SIMBRIEF
Altitude:
(Current/Filed)
32,000ft
Speed:
(Current/Filed)
455kts
Departed: 14-Sep-20 12:27 PM
Arrived: 14-Sep-20 01:24 PM
Distance/Time
Traveled:
319nm/0:56
Distance/Time
To Go:
Arrived

Flight Plot

Page will automatically refresh every two minutes.

Flight plan parsing failed; only flown route is shown


Map Options




Map Legend


Flown Route
Filed Route
Departure Airport
Arrival Airport
Navaid (VOR, NDB)
Fix

Horizontal Profiles

Position Reports

Time Latitude Longitude Heading Altitude Ground
Speed
14-Sep-20 11:39 32.120626 -110.939460 43 2604ft 0kts
14-Sep-20 11:40 32.120626 -110.939460 43 2604ft 0kts
14-Sep-20 11:41 32.120626 -110.939460 43 2604ft 0kts
14-Sep-20 11:42 32.120626 -110.939460 43 2604ft 0kts
14-Sep-20 11:43 32.120626 -110.939460 43 2604ft 0kts
14-Sep-20 11:44 32.120626 -110.939460 43 2604ft 0kts
14-Sep-20 11:45 32.120626 -110.939460 43 2604ft 0kts
14-Sep-20 11:46 32.120626 -110.939460 43 2604ft 0kts
14-Sep-20 11:47 32.120626 -110.939460 43 2604ft 0kts
14-Sep-20 11:48 32.120626 -110.939460 43 2604ft 0kts
14-Sep-20 11:49 32.120626 -110.939460 43 2604ft 0kts
14-Sep-20 11:50 32.120626 -110.939460 43 2604ft 0kts
14-Sep-20 11:51 32.120626 -110.939460 43 2604ft 0kts
14-Sep-20 11:52 32.120626 -110.939460 43 2604ft 0kts
14-Sep-20 11:53 32.120626 -110.939460 43 2604ft 0kts
14-Sep-20 11:54 32.120626 -110.939460 43 2604ft 0kts
14-Sep-20 11:55 32.120626 -110.939460 43 2604ft 0kts
14-Sep-20 11:55 32.120626 -110.939460 43 2604ft 0kts
14-Sep-20 11:57 32.120626 -110.939460 43 2604ft 0kts
14-Sep-20 11:58 32.120626 -110.939460 43 2604ft 0kts
14-Sep-20 11:59 32.120626 -110.939460 43 2604ft 0kts
14-Sep-20 11:59 32.120626 -110.939460 43 2604ft 0kts
14-Sep-20 12:00 32.120626 -110.939460 43 2604ft 0kts
14-Sep-20 12:02 32.120626 -110.939460 43 2604ft 0kts
14-Sep-20 12:02 32.120626 -110.939460 43 2604ft 0kts
14-Sep-20 12:03 32.120626 -110.939460 43 2604ft 0kts
14-Sep-20 12:04 32.120626 -110.939460 43 2604ft 0kts
14-Sep-20 12:05 32.120626 -110.939460 43 2604ft 0kts
14-Sep-20 12:06 32.120626 -110.939460 43 2604ft 0kts
14-Sep-20 12:07 32.120626 -110.939460 43 2604ft 0kts
14-Sep-20 12:08 32.120626 -110.939460 43 2604ft 0kts
14-Sep-20 12:09 32.120626 -110.939460 43 2604ft 0kts
14-Sep-20 12:10 32.120625 -110.939460 43 2604ft 0kts
14-Sep-20 12:11 32.120282 -110.939784 16 2604ft 2kts
14-Sep-20 12:12 32.119806 -110.939641 310 2604ft 1kts
14-Sep-20 12:13 32.119778 -110.939604 313 2604ft 0kts
14-Sep-20 12:14 32.119778 -110.939604 313 2604ft 0kts
14-Sep-20 12:15 32.119778 -110.939604 313 2604ft 0kts
14-Sep-20 12:16 32.119778 -110.939604 313 2604ft 0kts
14-Sep-20 12:17 32.119778 -110.939604 313 2604ft 0kts
14-Sep-20 12:18 32.120231 -110.940193 305 2604ft 3kts
14-Sep-20 12:19 32.120923 -110.942508 315 2604ft 13kts
14-Sep-20 12:20 32.123879 -110.945968 315 2604ft 13kts
14-Sep-20 12:21 32.124039 -110.946823 225 2604ft 0kts
14-Sep-20 12:22 32.124039 -110.946824 225 2604ft 0kts
14-Sep-20 12:23 32.124039 -110.946825 225 2604ft 0kts
14-Sep-20 12:24 32.124038 -110.946828 225 2604ft 0kts
14-Sep-20 12:25 32.124027 -110.946838 225 2604ft 1kts
14-Sep-20 12:26 32.118877 -110.942603 135 2604ft 112kts
14-Sep-20 12:27 32.079411 -110.899323 131 4510ft 228kts
14-Sep-20 12:28 32.010798 -110.895484 212 7229ft 292kts
14-Sep-20 12:29 31.980108 -110.983842 285 10420ft 316kts
14-Sep-20 12:30 32.022381 -111.081535 301 13050ft 343kts
14-Sep-20 12:31 32.071667 -111.181630 302 15989ft 354kts
14-Sep-20 12:32 32.138706 -111.274645 313 18759ft 365kts
14-Sep-20 12:33 32.207609 -111.364530 313 21259ft 375kts
14-Sep-20 12:34 32.278356 -111.457502 310 23546ft 386kts
14-Sep-20 12:35 32.339410 -111.563811 305 25639ft 396kts
14-Sep-20 12:36 32.401494 -111.674032 304 27541ft 406kts
14-Sep-20 12:37 32.464739 -111.786635 304 29282ft 414kts
14-Sep-20 12:38 32.529164 -111.901660 304 30875ft 422kts
14-Sep-20 12:39 32.594108 -112.017963 304 32084ft 432kts
14-Sep-20 12:40 32.661370 -112.138803 304 32075ft 433kts
14-Sep-20 12:41 32.728910 -112.260533 304 32033ft 434kts
14-Sep-20 12:42 32.795144 -112.380294 304 32006ft 434kts
14-Sep-20 12:43 32.861517 -112.500689 304 32006ft 434kts
14-Sep-20 12:44 32.924091 -112.623247 293 32012ft 436kts
14-Sep-20 12:45 32.942968 -112.766932 266 32012ft 444kts
14-Sep-20 12:46 32.924271 -112.912709 263 32007ft 444kts
14-Sep-20 12:47 32.904040 -113.061579 263 32006ft 443kts
14-Sep-20 12:48 32.882683 -113.217419 263 32006ft 444kts
14-Sep-20 12:49 32.861223 -113.372537 263 32005ft 444kts
14-Sep-20 12:50 32.839403 -113.528798 263 32005ft 444kts
14-Sep-20 12:51 32.817813 -113.681965 263 32002ft 444kts
14-Sep-20 12:52 32.796356 -113.829727 263 31998ft 443kts
14-Sep-20 12:53 32.776303 -113.974917 267 31999ft 441kts
14-Sep-20 12:54 32.776533 -114.120697 276 31998ft 438kts
14-Sep-20 12:55 32.782933 -114.268724 275 31997ft 438kts
14-Sep-20 12:56 32.796141 -114.416751 288 32000ft 434kts
14-Sep-20 12:57 32.835195 -114.559438 290 31996ft 433kts
14-Sep-20 12:58 32.873286 -114.700488 285 31998ft 435kts
14-Sep-20 12:59 32.876828 -114.845948 271 31994ft 440kts
14-Sep-20 13:00 32.873431 -114.994711 271 31302ft 435kts
14-Sep-20 13:01 32.870085 -115.138056 268 30260ft 406kts
14-Sep-20 13:02 32.866686 -115.276833 268 29225ft 406kts
14-Sep-20 13:03 32.855336 -115.411036 260 27329ft 395kts
14-Sep-20 13:04 32.835480 -115.543236 258 25996ft 383kts
14-Sep-20 13:05 32.814557 -115.670260 257 24997ft 381kts
14-Sep-20 13:06 32.793854 -115.796154 257 22617ft 374kts
14-Sep-20 13:07 32.779672 -115.921331 263 20336ft 368kts
14-Sep-20 13:08 32.770709 -116.042426 263 18124ft 363kts
14-Sep-20 13:09 32.761708 -116.161405 263 15914ft 358kts
14-Sep-20 13:10 32.752716 -116.278838 263 13886ft 337kts
14-Sep-20 13:11 32.744012 -116.389711 263 12050ft 324kts
14-Sep-20 13:12 32.735750 -116.495663 263 10712ft 295kts
14-Sep-20 13:13 32.726285 -116.594388 262 9469ft 274kts
14-Sep-20 13:14 32.717877 -116.684917 264 8068ft 267kts
14-Sep-20 13:15 32.710902 -116.775147 264 6672ft 261kts
14-Sep-20 13:16 32.695854 -116.856326 249 5387ft 235kts
14-Sep-20 13:17 32.676591 -116.919948 258 4543ft 183kts
14-Sep-20 13:18 32.682181 -116.977773 284 3657ft 173kts
14-Sep-20 13:19 32.696833 -117.039014 286 2500ft 207kts
14-Sep-20 13:20 32.710815 -117.099741 285 1255ft 165kts
14-Sep-20 13:21 32.723979 -117.150194 284 728ft 145kts
14-Sep-20 13:22 32.733945 -117.191288 286 26ft 94kts
14-Sep-20 13:23 32.734647 -117.198180 144 27ft 5kts
14-Sep-20 13:24 32.733705 -117.197023 198 26ft 5kts
14-Sep-20 13:25 32.733125 -117.196756 140 27ft 0kts
14-Sep-20 13:26 32.733125 -117.196756 140 27ft 0kts
14-Sep-20 13:27 32.733125 -117.196756 140 27ft 0kts
14-Sep-20 13:28 32.733125 -117.196756 140 27ft 0kts
14-Sep-20 13:29 32.733125 -117.196756 140 27ft 0kts
14-Sep-20 13:30 32.733125 -117.196756 140 27ft 0kts
14-Sep-20 13:31 32.733125 -117.196756 140 27ft 0kts
14-Sep-20 13:32 32.733125 -117.196756 140 27ft 0kts
14-Sep-20 13:33 32.733125 -117.196756 140 27ft 0kts
14-Sep-20 13:34 32.733125 -117.196756 140 27ft 0kts
14-Sep-20 13:35 32.733125 -117.196756 140 27ft 0kts
14-Sep-20 13:36 32.733125 -117.196756 140 27ft 0kts
14-Sep-20 13:37 32.733125 -117.196756 140 27ft 0kts

Navigation Log

Ident Type
Flight plan parsing failed, navigation log unavailable